METAR Data
IDs: Format: Raw Decoded Include TAF

Data at: 1241 UTC 26 Feb 2021

EGKB 261220Z 29004KT 240V030 9999 FEW030 09/M00 Q1038